createdAt,value
2023-01-25T00:00:15.949Z,1.68
2023-01-25T00:03:06.502Z,1.46
2023-01-25T00:05:36.236Z,1.44
2023-01-25T00:08:05.753Z,1.43
2023-01-25T00:10:35.130Z,1.27
2023-01-25T00:13:04.415Z,1.39
2023-01-25T00:15:33.902Z,1.39
2023-01-25T00:18:02.994Z,1.14
2023-01-25T00:20:33.723Z,1.05
2023-01-25T00:23:02.830Z,1.14
2023-01-25T00:25:32.230Z,1.22
2023-01-25T00:28:01.380Z,1.01
2023-01-25T00:30:30.904Z,0.89
2023-01-25T00:33:07.796Z,0.94
2023-01-25T00:35:39.885Z,1.15
2023-01-25T00:38:28.742Z,1.34
2023-01-25T00:40:59.848Z,1.32
2023-01-25T00:43:29.274Z,1.13
2023-01-25T00:46:02.998Z,1.05
2023-01-25T00:48:32.394Z,0.99
2023-01-25T00:51:04.619Z,0.75
2023-01-25T00:53:34.092Z,1.16
2023-01-25T00:56:03.822Z,1.14
2023-01-25T00:58:33.109Z,1.25
2023-01-25T01:01:02.574Z,0.99
2023-01-25T01:03:31.819Z,0.97
2023-01-25T01:06:04.772Z,0.79
2023-01-25T01:08:36.861Z,0.92
2023-01-25T01:11:09.089Z,0.96
2023-01-25T01:13:40.233Z,0.90
2023-01-25T01:16:12.482Z,0.75
2023-01-25T01:18:43.541Z,0.70
2023-01-25T01:21:15.641Z,0.94
2023-01-25T01:23:44.911Z,0.81
2023-01-25T01:26:16.374Z,0.78
2023-01-25T01:28:45.595Z,0.82
2023-01-25T01:31:17.224Z,0.72
2023-01-25T01:34:13.350Z,0.88
2023-01-25T01:36:44.689Z,0.64
2023-01-25T01:39:14.005Z,0.61
2023-01-25T01:41:43.430Z,0.61
2023-01-25T01:44:19.378Z,0.78
2023-01-25T01:46:56.244Z,0.80
2023-01-25T01:49:31.669Z,0.85
2023-01-25T01:52:24.115Z,0.77
2023-01-25T01:54:57.983Z,0.77
2023-01-25T01:57:33.342Z,0.90
2023-01-25T02:00:05.308Z,0.75
2023-01-25T02:02:43.048Z,0.97
2023-01-25T02:05:19.488Z,0.78
2023-01-25T02:07:54.951Z,0.49
2023-01-25T02:10:25.481Z,0.58
2023-01-25T02:12:58.145Z,0.65
2023-01-25T02:15:34.569Z,0.87
2023-01-25T02:18:04.844Z,0.50
2023-01-25T02:20:38.295Z,0.67
2023-01-25T02:23:17.863Z,0.41
2023-01-25T02:25:48.505Z,0.51
2023-01-25T02:28:24.290Z,0.69
2023-01-25T02:30:53.591Z,0.92
2023-01-25T02:33:27.342Z,0.74
2023-01-25T02:36:01.344Z,0.47
2023-01-25T02:38:34.275Z,0.32
2023-01-25T02:41:11.792Z,0.49
2023-01-25T02:43:43.237Z,0.48
2023-01-25T02:46:20.496Z,0.61
2023-01-25T02:48:50.048Z,0.12
2023-01-25T02:51:19.143Z,0.31
2023-01-25T02:53:49.269Z,0.29
2023-01-25T02:56:20.497Z,0.61
2023-01-25T02:58:51.306Z,0.55
2023-01-25T03:01:22.484Z,0.35
2023-01-25T03:03:52.113Z,0.41
2023-01-25T03:06:22.282Z,0.44
2023-01-25T03:08:51.677Z,0.27
2023-01-25T03:11:23.269Z,0.18
2023-01-25T03:13:53.974Z,0.07
2023-01-25T03:16:23.640Z,0.30
2023-01-25T03:18:55.881Z,0.19
2023-01-25T03:21:26.893Z,0.27
2023-01-25T03:23:59.111Z,0.23
2023-01-25T03:26:53.169Z,0.15
2023-01-25T03:29:24.388Z,0.42
2023-01-25T03:36:48.964Z,0.61
2023-01-25T03:39:18.169Z,0.57
2023-01-25T03:41:49.117Z,0.58
2023-01-25T03:44:19.193Z,0.57
2023-01-25T03:46:49.739Z,0.40
2023-01-25T03:49:19.668Z,0.31
2023-01-25T03:51:49.261Z,0.16
2023-01-25T03:54:19.539Z,0.05
2023-01-25T03:56:51.152Z,0.28
2023-01-25T03:59:26.644Z,0.22
2023-01-25T04:01:57.541Z,-0.02
2023-01-25T04:04:26.755Z,0.29
2023-01-25T04:06:56.566Z,0.40
2023-01-25T04:09:26.837Z,0.57
2023-01-25T04:12:00.716Z,0.63
2023-01-25T04:14:43.583Z,0.82
2023-01-25T04:17:15.735Z,0.75
2023-01-25T04:20:05.752Z,0.69
2023-01-25T04:22:39.873Z,0.59
2023-01-25T04:25:10.166Z,0.37
2023-01-25T04:27:46.082Z,0.35
2023-01-25T04:30:18.476Z,0.43
2023-01-25T04:32:48.936Z,0.06
2023-01-25T04:35:23.100Z,0.45
2023-01-25T04:37:57.053Z,0.45
2023-01-25T04:40:28.905Z,0.24
2023-01-25T04:43:00.009Z,0.50
2023-01-25T04:45:30.966Z,0.48
2023-01-25T04:48:02.594Z,0.45
2023-01-25T04:50:33.217Z,0.41
2023-01-25T04:53:02.822Z,0.47
2023-01-25T04:55:33.854Z,0.37
2023-01-25T04:58:06.167Z,0.41
2023-01-25T05:00:36.004Z,0.21
2023-01-25T05:03:06.190Z,-0.03
2023-01-25T05:05:35.750Z,0.21
2023-01-25T05:08:09.617Z,0.42
2023-01-25T05:10:39.241Z,0.35
2023-01-25T05:13:28.846Z,0.19
2023-01-25T05:16:10.047Z,0.02
2023-01-25T05:18:48.364Z,0.14
2023-01-25T05:21:40.190Z,0.28
2023-01-25T05:24:10.861Z,0.19
2023-01-25T05:26:58.177Z,0.13
2023-01-25T05:29:30.139Z,0.08
2023-01-25T05:32:04.433Z,0.01
2023-01-25T05:34:34.917Z,-0.03
2023-01-25T05:37:05.165Z,0.18
2023-01-25T05:39:35.344Z,0.28
2023-01-25T05:42:05.375Z,0.21
2023-01-25T05:44:36.404Z,0.28
2023-01-25T05:47:06.119Z,0.25
2023-01-25T05:49:35.650Z,0.10
2023-01-25T05:52:07.398Z,0.20
2023-01-25T05:54:37.811Z,0.33
2023-01-25T05:57:08.399Z,0.48
2023-01-25T05:59:39.263Z,0.36
2023-01-25T06:02:12.364Z,0.33
2023-01-25T06:04:42.923Z,0.40
2023-01-25T06:07:12.642Z,0.16
2023-01-25T06:09:43.361Z,0.34
2023-01-25T06:12:12.542Z,0.26
2023-01-25T06:14:43.332Z,0.53
2023-01-25T06:17:12.469Z,0.60
2023-01-25T06:20:02.345Z,0.36
2023-01-25T06:22:51.387Z,0.17
2023-01-25T06:25:20.791Z,0.09
2023-01-25T06:27:49.888Z,0.31
2023-01-25T06:30:20.965Z,0.57
2023-01-25T06:32:50.589Z,0.33
2023-01-25T06:35:20.043Z,0.16
2023-01-25T06:37:49.388Z,0.26
2023-01-25T06:40:19.083Z,0.33
2023-01-25T06:42:48.123Z,0.35
2023-01-25T06:45:19.261Z,0.40
2023-01-25T06:47:50.627Z,0.36
2023-01-25T06:50:20.055Z,0.23
2023-01-25T06:52:54.057Z,0.43
2023-01-25T06:55:24.396Z,0.45
2023-01-25T06:57:53.482Z,0.23
2023-01-25T07:00:24.551Z,0.40
2023-01-25T07:02:53.730Z,0.53
2023-01-25T07:05:24.172Z,0.74
2023-01-25T07:07:53.399Z,0.40
2023-01-25T07:10:22.854Z,0.54
2023-01-25T07:12:51.999Z,0.43
2023-01-25T07:15:21.342Z,0.43
2023-01-25T07:17:51.858Z,0.16
2023-01-25T07:20:21.321Z,0.45
2023-01-25T07:22:50.394Z,0.44
2023-01-25T07:25:19.766Z,0.51
2023-01-25T07:27:48.958Z,0.45
2023-01-25T07:30:21.729Z,0.31
2023-01-25T07:32:52.264Z,0.31
2023-01-25T07:35:21.764Z,0.69
2023-01-25T07:37:50.806Z,0.69
2023-01-25T07:40:20.432Z,0.51
2023-01-25T07:42:49.685Z,0.50
2023-01-25T07:45:20.759Z,0.29
2023-01-25T07:47:51.431Z,0.32
2023-01-25T07:50:20.885Z,0.30
2023-01-25T07:52:50.106Z,0.21
2023-01-25T07:55:19.557Z,0.62
2023-01-25T07:57:49.175Z,0.45
2023-01-25T08:00:19.416Z,0.66
2023-01-25T08:02:53.703Z,0.70
2023-01-25T08:05:23.101Z,0.55
2023-01-25T08:07:52.353Z,0.70
2023-01-25T08:10:21.944Z,0.58
2023-01-25T08:12:51.014Z,0.48
2023-01-25T08:15:20.426Z,0.79
2023-01-25T08:17:49.628Z,0.43
2023-01-25T08:20:22.144Z,0.60
2023-01-25T08:22:53.066Z,0.74
2023-01-25T08:25:22.721Z,0.43
2023-01-25T08:27:52.288Z,0.54
2023-01-25T08:30:24.439Z,0.50
2023-01-25T08:32:54.218Z,0.80
2023-01-25T08:35:25.185Z,0.96
2023-01-25T08:37:54.450Z,0.84
2023-01-25T08:40:23.939Z,0.64
2023-01-25T08:42:53.056Z,0.66
2023-01-25T08:45:22.708Z,0.68
2023-01-25T08:47:51.875Z,0.84
2023-01-25T08:50:21.449Z,0.88
2023-01-25T08:52:52.794Z,1.09
2023-01-25T08:55:22.260Z,1.27
2023-01-25T08:57:51.422Z,0.71
2023-01-25T09:00:21.946Z,1.01
2023-01-25T09:02:51.061Z,0.80
2023-01-25T09:05:20.605Z,1.19
2023-01-25T09:07:51.194Z,0.87
2023-01-25T09:10:20.897Z,1.25
2023-01-25T09:12:51.229Z,0.94
2023-01-25T09:15:20.838Z,0.56
2023-01-25T09:17:52.683Z,0.92
2023-01-25T09:20:22.346Z,1.06
2023-01-25T09:22:53.227Z,1.39
2023-01-25T09:25:22.648Z,1.51
2023-01-25T09:27:52.520Z,1.27
2023-01-25T09:30:26.359Z,1.31
2023-01-25T09:32:59.948Z,1.52
2023-01-25T09:35:29.731Z,1.84
2023-01-25T09:38:00.357Z,1.91
2023-01-25T09:40:40.359Z,2.00
2023-01-25T09:43:22.256Z,1.81
2023-01-25T09:45:51.628Z,1.81
2023-01-25T09:48:28.653Z,1.49
2023-01-25T09:51:17.995Z,1.46
2023-01-25T09:53:52.636Z,1.65
2023-01-25T09:56:26.216Z,1.76
2023-01-25T09:58:59.801Z,1.54
2023-01-25T10:01:42.995Z,2.03
2023-01-25T10:04:18.133Z,2.03
2023-01-25T10:07:00.197Z,1.98
2023-01-25T10:09:39.781Z,2.09
2023-01-25T10:12:16.823Z,1.77
2023-01-25T10:14:46.026Z,2.02
2023-01-25T10:17:21.872Z,1.29
2023-01-25T10:20:19.546Z,1.70
2023-01-25T10:22:52.861Z,1.82
2023-01-25T10:25:32.620Z,1.69
2023-01-25T10:28:19.718Z,1.64
2023-01-25T10:30:56.571Z,1.22
2023-01-25T10:33:27.918Z,1.82
2023-01-25T10:36:00.231Z,2.64
2023-01-25T10:38:35.067Z,2.67
2023-01-25T10:41:11.167Z,2.19
2023-01-25T10:43:41.026Z,2.31
2023-01-25T10:46:22.920Z,2.38
2023-01-25T10:48:52.377Z,2.00
2023-01-25T10:51:33.394Z,2.56
2023-01-25T10:54:05.571Z,2.61
2023-01-25T10:56:40.361Z,2.67
2023-01-25T10:59:17.434Z,3.17
2023-01-25T11:01:46.707Z,3.43
2023-01-25T11:04:32.898Z,4.12
2023-01-25T11:07:02.975Z,6.59
2023-01-25T11:09:38.562Z,7.05
2023-01-25T11:12:20.558Z,8.10
2023-01-25T11:14:50.975Z,7.35
2023-01-25T11:17:27.259Z,6.51
2023-01-25T11:20:18.991Z,8.52
2023-01-25T11:22:53.455Z,9.90
2023-01-25T11:25:31.333Z,10.60
2023-01-25T11:28:18.948Z,10.81
2023-01-25T11:30:49.225Z,9.82
2023-01-25T11:33:21.114Z,9.75
2023-01-25T11:36:21.194Z,11.26
2023-01-25T11:39:11.549Z,10.27
2023-01-25T11:41:53.664Z,9.49
2023-01-25T11:44:52.254Z,9.96
2023-01-25T11:47:37.627Z,9.02
2023-01-25T11:50:14.941Z,8.95
2023-01-25T11:53:14.123Z,8.70
2023-01-25T11:55:50.686Z,8.74
2023-01-25T11:58:37.936Z,8.87
2023-01-25T12:01:18.595Z,9.09
2023-01-25T12:04:10.416Z,9.41
2023-01-25T12:06:55.399Z,10.22
2023-01-25T12:09:43.949Z,9.65
2023-01-25T12:12:23.599Z,11.21
2023-01-25T12:15:11.414Z,9.53
2023-01-25T12:18:10.197Z,9.62
2023-01-25T12:20:55.980Z,9.63
2023-01-25T12:23:36.356Z,12.06
2023-01-25T12:26:27.137Z,12.01
2023-01-25T12:29:06.811Z,8.38
2023-01-25T12:31:43.867Z,9.96
2023-01-25T12:34:23.330Z,10.57
2023-01-25T12:36:52.953Z,10.99
2023-01-25T12:39:26.822Z,10.73
2023-01-25T12:42:04.519Z,10.22
2023-01-25T12:44:40.157Z,9.58
2023-01-25T12:47:17.148Z,10.30
2023-01-25T12:49:53.725Z,11.81
2023-01-25T12:52:29.174Z,11.17
2023-01-25T12:55:00.975Z,9.22
2023-01-25T12:57:38.501Z,11.16
2023-01-25T13:00:19.747Z,10.37
2023-01-25T13:03:08.023Z,10.63
2023-01-25T13:05:48.424Z,9.86
2023-01-25T13:08:32.549Z,10.46
2023-01-25T13:11:13.325Z,9.01
2023-01-25T13:13:42.913Z,9.57
2023-01-25T13:16:43.206Z,10.40
2023-01-25T13:19:23.567Z,10.57
2023-01-25T13:21:56.745Z,10.42
2023-01-25T13:24:27.592Z,9.19
2023-01-25T13:27:02.587Z,10.00
2023-01-25T13:29:56.910Z,10.02
2023-01-25T13:33:01.314Z,8.87
2023-01-25T13:35:36.929Z,7.42
2023-01-25T13:38:26.860Z,7.97
2023-01-25T13:41:15.428Z,9.53
2023-01-25T13:43:51.116Z,6.38
2023-01-25T13:46:24.289Z,6.07
2023-01-25T13:49:04.643Z,6.36
2023-01-25T13:51:40.256Z,5.64
2023-01-25T13:54:18.644Z,5.01
2023-01-25T13:56:48.087Z,5.48
2023-01-25T13:59:27.593Z,5.11
2023-01-25T14:01:58.425Z,4.36
2023-01-25T14:04:28.483Z,3.92
2023-01-25T14:07:00.560Z,3.80
2023-01-25T14:09:31.911Z,3.58
2023-01-25T14:12:04.152Z,3.51
2023-01-25T14:14:35.038Z,2.93
2023-01-25T14:17:17.780Z,3.18
2023-01-25T14:19:50.767Z,3.34
2023-01-25T14:22:25.233Z,2.94
2023-01-25T14:25:08.522Z,2.52
2023-01-25T14:27:42.673Z,2.78
2023-01-25T14:30:21.740Z,2.44
2023-01-25T14:32:52.839Z,2.46
2023-01-25T14:38:34.153Z,2.31
2023-01-25T14:41:18.184Z,2.34
2023-01-25T14:43:49.630Z,2.34
2023-01-25T14:46:30.358Z,2.31
2023-01-25T14:49:25.450Z,2.32
2023-01-25T14:52:04.477Z,2.24
2023-01-25T14:54:36.494Z,2.16
2023-01-25T14:57:09.268Z,1.65
2023-01-25T14:59:41.027Z,1.78
2023-01-25T15:02:22.527Z,1.87
2023-01-25T15:05:11.108Z,1.84
2023-01-25T15:07:46.598Z,1.74
2023-01-25T15:10:21.916Z,1.58
2023-01-25T15:13:20.464Z,1.59
2023-01-25T15:15:56.681Z,1.78
2023-01-25T15:18:45.098Z,1.79
2023-01-25T15:21:15.913Z,1.66
2023-01-25T15:23:47.095Z,1.63
2023-01-25T15:26:20.708Z,1.45
2023-01-25T15:28:53.085Z,1.43
2023-01-25T15:31:26.168Z,1.36
2023-01-25T15:33:58.945Z,1.24
2023-01-25T15:36:28.683Z,0.89
2023-01-25T15:38:57.837Z,0.97
2023-01-25T15:41:27.244Z,0.85
2023-01-25T15:43:57.744Z,0.79
2023-01-25T15:46:29.907Z,0.80
2023-01-25T15:48:59.103Z,0.74
2023-01-25T15:51:28.764Z,0.60
2023-01-25T15:53:57.834Z,0.46
2023-01-25T15:56:31.880Z,0.38
2023-01-25T15:59:07.369Z,0.36
2023-01-25T16:01:37.011Z,0.31
2023-01-25T16:04:06.533Z,0.57
2023-01-25T16:06:40.766Z,0.54
2023-01-25T16:09:18.836Z,0.71
2023-01-25T16:11:50.681Z,0.62
2023-01-25T16:14:21.598Z,0.61
2023-01-25T16:16:52.977Z,0.41
2023-01-25T16:19:23.995Z,0.49
2023-01-25T16:21:53.456Z,0.38
2023-01-25T16:24:22.706Z,0.17
2023-01-25T16:26:54.995Z,0.04
2023-01-25T16:29:26.244Z,0.13
2023-01-25T16:31:57.294Z,0.13
2023-01-25T16:34:26.706Z,0.09
2023-01-25T16:36:57.676Z,-0.02
2023-01-25T16:39:28.383Z,0.03
2023-01-25T16:41:58.004Z,0.07
2023-01-25T16:44:28.623Z,0.13
2023-01-25T16:46:58.075Z,-0.16
2023-01-25T16:49:28.218Z,-0.13
2023-01-25T16:51:58.059Z,-0.05
2023-01-25T16:54:28.186Z,0.17
2023-01-25T16:56:58.984Z,0.13
2023-01-25T16:59:30.604Z,0.10
2023-01-25T17:02:00.345Z,-0.11
2023-01-25T17:04:30.346Z,-0.15
2023-01-25T17:07:00.051Z,0.00
2023-01-25T17:09:29.818Z,0.07
2023-01-25T17:11:59.293Z,-0.13
2023-01-25T17:14:29.875Z,0.29
2023-01-25T17:16:59.246Z,0.48
2023-01-25T17:19:28.305Z,0.48
2023-01-25T17:21:59.183Z,0.67
2023-01-25T17:24:29.149Z,0.26
2023-01-25T17:26:59.436Z,0.26
2023-01-25T17:29:31.021Z,0.31
2023-01-25T17:32:00.660Z,0.38
2023-01-25T17:34:29.797Z,0.09
2023-01-25T17:36:59.310Z,0.28
2023-01-25T17:39:28.514Z,0.60
2023-01-25T17:41:57.949Z,0.72
2023-01-25T17:44:27.043Z,0.57
2023-01-25T17:46:57.844Z,0.57
2023-01-25T17:49:28.644Z,0.74
2023-01-25T17:51:58.083Z,0.96
2023-01-25T17:54:27.996Z,0.87
2023-01-25T17:56:57.382Z,0.98
2023-01-25T17:59:26.553Z,0.84
2023-01-25T18:01:57.980Z,0.86
2023-01-25T18:04:27.169Z,0.74
2023-01-25T18:06:56.615Z,0.78
2023-01-25T18:09:25.877Z,0.78
2023-01-25T18:11:55.234Z,0.81
2023-01-25T18:14:24.342Z,1.05
2023-01-25T18:16:53.938Z,0.88
2023-01-25T18:19:24.514Z,1.05
2023-01-25T18:21:53.894Z,0.88
2023-01-25T18:24:27.371Z,1.08
2023-01-25T18:27:02.217Z,0.85
2023-01-25T18:29:46.588Z,0.56
2023-01-25T18:32:16.668Z,0.74
2023-01-25T18:34:48.290Z,0.49
2023-01-25T18:37:21.919Z,0.37
2023-01-25T18:39:52.896Z,0.48
2023-01-25T18:42:24.230Z,0.68
2023-01-25T18:44:53.448Z,0.51
2023-01-25T18:47:24.009Z,0.44
2023-01-25T18:49:54.996Z,0.38
2023-01-25T18:52:25.743Z,0.42
2023-01-25T18:54:54.981Z,0.36
2023-01-25T18:57:25.084Z,0.55
2023-01-25T18:59:54.496Z,0.69
2023-01-25T19:02:24.062Z,0.48
2023-01-25T19:04:55.533Z,0.47
2023-01-25T19:07:24.903Z,0.46
2023-01-25T19:09:53.942Z,0.33
2023-01-25T19:12:23.347Z,0.24
2023-01-25T19:14:52.482Z,0.48
2023-01-25T19:17:21.939Z,0.65
2023-01-25T19:19:51.163Z,0.75
2023-01-25T19:22:21.976Z,0.59
2023-01-25T19:24:51.039Z,0.77
2023-01-25T19:27:20.632Z,0.67
2023-01-25T19:29:49.827Z,0.60
2023-01-25T19:32:19.240Z,0.53
2023-01-25T19:34:48.495Z,0.64
2023-01-25T19:37:17.846Z,0.67
2023-01-25T19:39:49.109Z,0.40
2023-01-25T19:42:18.835Z,0.45
2023-01-25T19:44:49.216Z,0.51
2023-01-25T19:47:18.621Z,0.41
2023-01-25T19:49:47.761Z,0.56
2023-01-25T19:52:17.415Z,0.13
2023-01-25T19:54:48.002Z,0.37
2023-01-25T19:57:17.593Z,0.29
2023-01-25T19:59:46.795Z,0.56
2023-01-25T20:02:16.123Z,0.61
2023-01-25T20:04:45.353Z,0.57
2023-01-25T20:07:14.735Z,0.41
2023-01-25T20:09:43.915Z,0.48
2023-01-25T20:12:14.831Z,0.49
2023-01-25T20:14:44.457Z,0.44
2023-01-25T20:17:14.279Z,0.56
2023-01-25T20:19:44.420Z,0.63
2023-01-25T20:22:13.943Z,0.74
2023-01-25T20:24:43.194Z,0.43
2023-01-25T20:27:14.379Z,0.44
2023-01-25T20:29:44.256Z,0.42
2023-01-25T20:32:30.619Z,0.46
2023-01-25T20:35:03.590Z,0.26
2023-01-25T20:37:33.034Z,0.55
2023-01-25T20:40:02.215Z,0.48
2023-01-25T20:42:33.022Z,0.57
2023-01-25T20:45:02.174Z,0.44
2023-01-25T20:47:31.536Z,0.52
2023-01-25T20:50:00.668Z,0.77
2023-01-25T20:52:30.151Z,0.94
2023-01-25T20:54:59.526Z,0.77
2023-01-25T20:57:29.010Z,0.76
2023-01-25T20:59:59.922Z,0.51
2023-01-25T21:02:29.291Z,0.61
2023-01-25T21:04:58.468Z,0.47
2023-01-25T21:07:27.853Z,0.62
2023-01-25T21:09:57.002Z,0.74
2023-01-25T21:12:26.512Z,0.58
2023-01-25T21:14:56.584Z,0.60
2023-01-25T21:17:27.414Z,0.50
2023-01-25T21:19:58.063Z,0.66
2023-01-25T21:22:29.978Z,0.53
2023-01-25T21:24:59.131Z,0.59
2023-01-25T21:27:29.711Z,0.89
2023-01-25T21:30:00.132Z,0.75
2023-01-25T21:32:31.230Z,0.67
2023-01-25T21:35:00.393Z,0.63
2023-01-25T21:37:30.975Z,0.67
2023-01-25T21:40:00.120Z,0.69
2023-01-25T21:42:32.175Z,0.54
2023-01-25T21:45:19.008Z,0.49
2023-01-25T21:47:49.866Z,0.59
2023-01-25T21:50:36.784Z,0.86
2023-01-25T21:53:06.432Z,0.66
2023-01-25T21:55:35.611Z,0.54
2023-01-25T21:58:05.084Z,0.70
2023-01-25T22:00:35.972Z,0.57
2023-01-25T22:03:06.891Z,0.76
2023-01-25T22:05:35.937Z,0.93
2023-01-25T22:08:05.594Z,0.81
2023-01-25T22:10:34.793Z,1.01
2023-01-25T22:13:04.221Z,1.23
2023-01-25T22:15:34.104Z,1.21
2023-01-25T22:18:03.581Z,1.29
2023-01-25T22:20:34.074Z,0.86
2023-01-25T22:23:03.523Z,1.01
2023-01-25T22:25:32.686Z,1.00
2023-01-25T22:28:07.452Z,0.90
2023-01-25T22:30:36.712Z,0.85
2023-01-25T22:33:07.329Z,1.15
2023-01-25T22:35:37.793Z,0.88
2023-01-25T22:38:07.207Z,0.91
2023-01-25T22:40:36.380Z,0.93
2023-01-25T22:43:05.935Z,1.02
2023-01-25T22:45:35.056Z,1.02
2023-01-25T22:48:04.536Z,0.86
2023-01-25T22:50:33.690Z,0.78
2023-01-25T22:53:04.503Z,1.17
2023-01-25T22:55:33.593Z,1.23
2023-01-25T22:58:03.004Z,1.04
2023-01-25T23:00:32.146Z,1.14
2023-01-25T23:03:01.563Z,1.23
2023-01-25T23:05:30.990Z,1.27
2023-01-25T23:08:00.486Z,1.46
2023-01-25T23:10:31.010Z,1.54
2023-01-25T23:13:00.497Z,1.37
2023-01-25T23:15:29.747Z,1.14
2023-01-25T23:18:16.452Z,1.22
2023-01-25T23:20:45.658Z,1.37
2023-01-25T23:23:15.063Z,1.45
2023-01-25T23:25:47.194Z,1.48
2023-01-25T23:28:16.675Z,1.26
2023-01-25T23:30:45.870Z,1.27
2023-01-25T23:33:15.292Z,1.13
2023-01-25T23:35:44.320Z,1.34
2023-01-25T23:38:15.292Z,1.60
2023-01-25T23:40:45.790Z,1.61
2023-01-25T23:43:15.391Z,1.65
2023-01-25T23:45:45.631Z,1.46
2023-01-25T23:48:15.049Z,1.53
2023-01-25T23:50:44.174Z,1.42
2023-01-25T23:53:13.533Z,1.37
2023-01-25T23:55:51.949Z,1.34
2023-01-25T23:58:21.983Z,1.37
